Time;durP1;ratioP1;P1;durP2;ratioP2;P2;SDS_P1;SDS_P2;PMS_P1;PMS_P2;Temp;Humidity;BMP_temperature;BMP_pressure;BME280_temperature;BME280_humidity;BME280_pressure;Samples;Min_cycle;Max_cycle;Signal;HPM_P1;HPM_P2
2023/06/08 04:22:31;;;;;;;5.32;3.70;;;;;;;13.51;100.00;99998.13;5089735;28;20332;-66
2023/06/08 04:24:57;;;;;;;4.90;3.30;;;;;;;13.53;100.00;99998.72;5088243;28;20471;-65
2023/06/08 04:27:24;;;;;;;6.65;3.88;;;;;;;13.58;100.00;100005.16;5088122;28;20149;-65
2023/06/08 04:29:52;;;;;;;4.78;3.17;;;;;;;13.69;100.00;100005.59;5087841;28;20568;-68
2023/06/08 04:32:19;;;;;;;4.38;3.67;;;;;;;13.71;100.00;100011.59;5088058;28;20462;-66
2023/06/08 04:34:45;;;;;;;5.07;3.25;;;;;;;13.79;100.00;100017.59;5093253;28;20067;-68
2023/06/08 04:37:11;;;;;;;5.72;2.95;;;;;;;13.90;100.00;100018.88;5108234;28;20043;-65
2023/06/08 04:39:38;;;;;;;3.08;2.70;;;;;;;13.99;100.00;100024.88;5107561;28;20172;-66
2023/06/08 04:42:05;;;;;;;4.15;2.95;;;;;;;14.09;100.00;100028.00;5108261;28;20044;-66
2023/06/08 04:44:33;;;;;;;3.20;2.78;;;;;;;14.18;100.00;100028.66;5108251;28;20068;-66
2023/06/08 04:46:59;;;;;;;;;;;;;;;14.28;100.00;100027.25;5108370;28;20123;-66
2023/06/08 04:49:31;;;;;;;5.13;3.10;;;;;;;14.40;99.97;100022.09;5109094;28;20023;-68
2023/06/08 04:51:58;;;;;;;2.80;2.60;;;;;;;14.51;99.86;100020.72;5107973;28;20031;-65
2023/06/08 04:54:25;;;;;;;;;;;;;;;14.61;98.66;100027.31;5109678;28;20514;-66
2023/06/08 04:56:53;;;;;;;3.33;2.35;;;;;;;14.74;97.94;100026.50;5109215;28;19923;-65
2023/06/08 04:59:20;;;;;;;4.05;2.55;;;;;;;14.90;96.67;100036.81;5107576;28;20126;-66
2023/06/08 05:01:46;;;;;;;2.60;2.28;;;;;;;15.01;95.92;100037.25;5109009;28;20114;-65
2023/06/08 05:04:11;;;;;;;4.22;2.22;;;;;;;15.17;95.28;100042.16;5107740;28;20035;-66
2023/06/08 05:06:37;;;;;;;2.75;2.42;;;;;;;15.29;94.48;100048.56;5109139;28;20063;-66
2023/06/08 05:09:03;;;;;;;2.20;1.92;;;;;;;15.44;94.00;100046.44;5099856;28;20557;-66
2023/06/08 05:11:28;;;;;;;2.20;1.85;;;;;;;15.55;93.42;100050.38;5088375;28;20028;-66
2023/06/08 05:13:54;;;;;;;2.28;2.08;;;;;;;15.63;91.84;100046.66;5087247;28;20037;-67
2023/06/08 05:16:19;;;;;;;2.35;2.13;;;;;;;15.72;92.15;100046.22;5087250;28;20184;-66
2023/06/08 05:18:45;;;;;;;2.35;2.00;;;;;;;15.73;91.09;100041.69;5088112;28;20048;-55
2023/06/08 05:21:10;;;;;;;2.53;1.80;;;;;;;15.87;90.37;100048.66;5088284;28;20036;-56
2023/06/08 05:23:36;;;;;;;2.70;2.00;;;;;;;15.94;91.02;100048.63;5088269;28;20040;-55
2023/06/08 05:26:01;;;;;;;3.65;2.33;;;;;;;16.01;90.80;100052.09;5088200;28;20040;-55
2023/06/08 05:28:26;;;;;;;2.58;2.03;;;;;;;16.01;90.82;100050.25;5088202;28;20036;-55
2023/06/08 05:30:52;;;;;;;2.22;2.00;;;;;;;16.04;90.91;100054.38;5088075;28;20037;-58
2023/06/08 05:33:17;;;;;;;2.70;2.00;;;;;;;16.12;91.42;100048.75;5078184;28;20041;-56
2023/06/08 05:35:42;;;;;;;2.83;2.42;;;;;;;16.16;91.38;100052.63;5074862;28;20048;-55
2023/06/08 05:38:08;;;;;;;3.20;2.55;;;;;;;16.20;92.12;100048.50;5075602;28;20044;-54
2023/06/08 05:40:34;;;;;;;2.65;2.35;;;;;;;16.20;92.28;100058.44;5074603;28;20051;-55
2023/06/08 05:42:59;;;;;;;3.03;2.60;;;;;;;16.12;92.68;100058.69;5073289;28;20102;-58
2023/06/08 05:45:25;;;;;;;3.63;2.90;;;;;;;16.21;92.57;100066.25;5074334;28;20046;-54
2023/06/08 05:47:51;;;;;;;2.92;2.63;;;;;;;16.22;92.76;100070.59;5074499;28;20045;-57
2023/06/08 05:50:16;;;;;;;4.70;3.03;;;;;;;16.17;92.80;100064.22;5073584;28;20123;-53
2023/06/08 05:52:42;;;;;;;3.50;2.80;;;;;;;16.24;92.82;100065.03;5075472;28;20029;-55
2023/06/08 05:55:07;;;;;;;2.97;2.65;;;;;;;16.26;93.13;100071.00;5093114;28;20130;-54
2023/06/08 05:57:33;;;;;;;2.60;2.40;;;;;;;16.27;93.81;100075.34;5094546;28;20047;-54
2023/06/08 05:59:58;;;;;;;3.83;2.90;;;;;;;16.27;94.58;100080.72;5093921;28;20481;-55
2023/06/08 06:02:24;;;;;;;3.22;2.70;;;;;;;16.29;95.17;100086.69;5094508;28;20071;-53
2023/06/08 06:04:49;;;;;;;3.80;3.17;;;;;;;16.33;95.82;100095.16;5094434;28;20060;-55
2023/06/08 06:07:15;;;;;;;4.70;3.75;;;;;;;16.37;95.08;100085.63;5094275;28;20032;-57
2023/06/08 06:09:40;;;;;;;5.93;4.35;;;;;;;16.37;95.63;100097.22;5093963;28;20492;-57
2023/06/08 06:12:07;;;;;;;5.45;3.47;;;;;;;16.41;95.95;100093.03;5094070;28;20393;-57
2023/06/08 06:14:40;;;;;;;8.30;7.43;;;;;;;16.42;95.14;100092.00;5094335;28;20075;-55
2023/06/08 06:17:07;;;;;;;3.83;3.30;;;;;;;16.47;97.23;100100.25;5093073;28;20064;-54
2023/06/08 06:19:38;;;;;;;4.03;3.47;;;;;;;16.50;97.51;100102.53;5067218;28;20032;-53
2023/06/08 06:22:08;;;;;;;4.03;3.22;;;;;;;16.59;96.02;100095.00;5067893;28;20067;-57
2023/06/08 06:24:35;;;;;;;4.38;3.42;;;;;;;16.67;95.75;100088.56;5073865;28;20048;-54
2023/06/08 06:27:01;;;;;;;4.18;3.70;;;;;;;16.74;95.67;100087.50;5073670;28;20082;-51
2023/06/08 06:29:27;;;;;;;5.68;4.00;;;;;;;16.78;95.89;100086.03;5073310;28;20051;-56
2023/06/08 06:31:52;;;;;;;5.45;4.40;;;;;;;16.81;97.46;100100.91;5073482;28;20041;-54
2023/06/08 06:34:18;;;;;;;4.32;3.60;;;;;;;16.83;96.89;100093.44;5073518;28;20040;-61
2023/06/08 06:36:44;;;;;;;4.45;3.80;;;;;;;16.87;96.39;100097.34;5073294;28;20047;-61
2023/06/08 06:39:10;;;;;;;5.28;3.90;;;;;;;16.95;95.94;100083.66;5073039;28;20400;-61
2023/06/08 06:41:35;;;;;;;3.80;3.47;;;;;;;17.02;95.92;100079.03;5072964;28;20124;-59
2023/06/08 06:44:01;;;;;;;4.50;3.50;;;;;;;17.04;95.32;100086.88;5070357;28;20044;-62
2023/06/08 06:46:26;;;;;;;5.85;3.53;;;;;;;17.07;95.18;100079.19;5065024;28;20044;-61
2023/06/08 06:48:52;;;;;;;3.58;3.25;;;;;;;17.17;95.34;100075.19;5062406;28;20040;-59
2023/06/08 06:51:17;;;;;;;3.97;3.35;;;;;;;17.20;95.50;100080.09;5062051;28;20476;-60
2023/06/08 06:53:43;;;;;;;4.18;3.63;;;;;;;17.23;95.98;100077.00;5062436;28;20094;-61
2023/06/08 06:56:08;;;;;;;4.65;3.97;;;;;;;17.34;94.98;100084.31;5065013;28;20079;-61
2023/06/08 06:58:34;;;;;;;4.70;3.60;;;;;;;17.33;95.45;100082.69;5066957;28;20037;-59
2023/06/08 07:01:01;;;;;;;4.72;4.18;;;;;;;17.50;95.98;100086.47;5052559;28;20049;-61
2023/06/08 07:03:27;;;;;;;3.53;3.22;;;;;;;17.59;94.26;100084.28;5052426;28;20029;-61
2023/06/08 07:05:53;;;;;;;3.60;3.30;;;;;;;17.70;93.62;100085.44;5052391;28;20047;-61
2023/06/08 07:08:19;;;;;;;4.05;3.65;;;;;;;17.82;92.64;100084.50;5052002;28;20112;-61
2023/06/08 07:10:44;;;;;;;4.10;3.70;;;;;;;17.74;92.31;100068.66;5052117;28;20581;-60
2023/06/08 07:13:10;;;;;;;4.85;4.35;;;;;;;17.75;93.00;100070.28;5052154;28;20043;-60
2023/06/08 07:15:36;;;;;;;4.78;4.20;;;;;;;17.92;92.37;100067.78;5052673;28;20132;-59
2023/06/08 07:18:01;;;;;;;3.88;3.42;;;;;;;17.93;92.90;100064.06;5052744;28;20082;-61
2023/06/08 07:20:26;;;;;;;4.63;3.70;;;;;;;17.92;93.34;100070.50;5052189;28;20037;-60
2023/06/08 07:22:52;;;;;;;5.40;4.22;;;;;;;17.90;93.10;100067.22;5051322;28;20033;-60
2023/06/08 07:25:17;;;;;;;6.90;4.28;;;;;;;17.82;93.02;100075.59;5052407;28;20562;-60
2023/06/08 07:27:44;;;;;;;4.30;3.72;;;;;;;17.67;94.49;100075.09;5052520;28;20087;-61
2023/06/08 07:30:12;;;;;;;4.93;4.43;;;;;;;17.66;93.85;100079.66;5052008;28;20040;-61
2023/06/08 07:32:37;;;;;;;5.95;4.28;;;;;;;17.64;94.79;100085.28;5052450;28;20044;-60
2023/06/08 07:35:04;;;;;;;4.45;4.05;;;;;;;17.60;94.03;100085.94;5052368;28;20086;-60
2023/06/08 07:37:30;;;;;;;4.13;3.83;;;;;;;17.68;94.36;100087.53;5060996;28;20443;-59
2023/06/08 07:39:55;;;;;;;4.85;3.90;;;;;;;17.75;94.04;100083.75;5072079;28;20090;-61
2023/06/08 07:42:20;;;;;;;4.20;3.80;;;;;;;17.88;92.85;100080.91;5072350;28;20036;-59
2023/06/08 07:44:46;;;;;;;5.35;4.13;;;;;;;17.92;92.45;100078.56;5072098;28;20029;-61
2023/06/08 07:47:11;;;;;;;4.72;4.20;;;;;;;17.94;92.85;100071.09;5071945;28;20114;-59
2023/06/08 07:49:37;;;;;;;4.65;3.90;;;;;;;17.91;93.24;100066.16;5071870;28;20044;-59
2023/06/08 07:52:02;;;;;;;4.70;4.30;;;;;;;17.89;93.17;100065.56;5072078;28;20032;-59
2023/06/08 07:54:28;;;;;;;4.38;3.78;;;;;;;17.81;94.52;100057.78;5072053;28;20051;-61
2023/06/08 07:56:53;;;;;;;4.40;3.67;;;;;;;17.74;95.16;100043.59;5071836;28;20039;-61
2023/06/08 07:59:19;;;;;;;5.03;4.30;;;;;;;17.71;95.89;100044.84;5071786;28;20032;-61
2023/06/08 08:01:44;;;;;;;4.70;3.80;;;;;;;17.70;96.72;100042.34;5072180;28;20036;-61
2023/06/08 08:04:10;;;;;;;4.82;4.00;;;;;;;17.70;97.57;100059.31;5072062;28;20040;-60
2023/06/08 08:06:36;;;;;;;4.40;4.00;;;;;;;17.75;97.19;100056.00;5071787;28;20047;-62
2023/06/08 08:09:02;;;;;;;5.95;3.97;;;;;;;17.72;96.77;100045.66;5071638;28;20049;-62
2023/06/08 08:11:27;;;;;;;4.20;3.55;;;;;;;17.79;96.96;100052.59;5071896;28;20037;-61
2023/06/08 08:13:55;;;;;;;5.57;4.50;;;;;;;17.85;95.56;100053.59;5071902;28;20497;-61
2023/06/08 08:16:20;;;;;;;4.35;3.88;;;;;;;18.02;94.26;100057.31;5071840;28;20104;-61
2023/06/08 08:18:46;;;;;;;4.20;3.80;;;;;;;18.05;95.14;100064.94;5071499;28;20554;-59
2023/06/08 08:21:11;;;;;;;4.72;3.97;;;;;;;18.00;95.68;100058.59;5071535;28;20037;-62
2023/06/08 08:23:38;;;;;;;5.00;4.20;;;;;;;17.92;96.20;100057.03;5070359;28;20040;-60
2023/06/08 08:26:03;;;;;;;4.10;3.70;;;;;;;17.93;96.71;100055.16;5071886;28;20086;-60
2023/06/08 08:28:29;;;;;;;5.57;4.22;;;;;;;18.04;95.82;100047.13;5071411;28;20115;-61
2023/06/08 08:30:54;;;;;;;5.30;3.97;;;;;;;18.07;95.38;100049.38;5071594;28;20454;-60
2023/06/08 08:33:20;;;;;;;4.05;3.60;;;;;;;18.11;95.80;100053.25;5071635;28;20044;-61
2023/06/08 08:35:45;;;;;;;4.05;3.65;;;;;;;18.18;95.27;100045.91;5071536;28;20041;-61
2023/06/08 08:38:10;;;;;;;4.15;3.75;;;;;;;18.27;95.29;100037.53;5071512;28;20028;-60
2023/06/08 08:40:36;;;;;;;3.63;3.25;;;;;;;18.36;95.10;100041.53;5071428;28;20116;-60
2023/06/08 08:43:07;;;;;;;6.95;3.85;;;;;;;18.56;94.94;100050.16;5071559;28;20324;-59
2023/06/08 08:45:34;;;;;;;3.85;3.30;;;;;;;18.74;93.14;100033.09;5071533;28;20037;-60
2023/06/08 08:48:01;;;;;;;3.63;3.03;;;;;;;18.98;91.48;100032.09;5071613;28;20127;-60
2023/06/08 08:50:28;;;;;;;3.60;3.13;;;;;;;19.27;85.84;100031.41;5071100;28;20045;-60
2023/06/08 08:52:56;;;;;;;2.72;2.25;;;;;;;19.48;83.90;100025.38;5071425;28;20571;-61
2023/06/08 08:55:27;;;;;;;2.80;2.40;;;;;;;19.76;82.19;100022.78;5071410;28;20040;-61
2023/06/08 08:57:58;;;;;;;3.85;2.20;;;;;;;20.16;76.77;100019.25;5071385;28;20037;-61
2023/06/08 09:00:24;;;;;;;2.95;2.40;;;;;;;20.29;72.98;100026.25;5070975;28;20032;-60
2023/06/08 09:02:50;;;;;;;2.15;1.95;;;;;;;20.58;73.38;100027.06;5071341;28;20106;-60
2023/06/08 09:05:16;;;;;;;2.45;2.20;;;;;;;20.85;72.10;100024.53;5071228;28;20116;-61
2023/06/08 09:07:42;;;;;;;3.58;2.50;;;;;;;20.93;70.47;100018.75;5072664;28;20032;-59
2023/06/08 09:10:21;;;;;;;3.25;2.22;;;;;;;20.83;66.16;100013.97;5074875;28;20040;-61
2023/06/08 09:12:48;;;;;;;4.18;2.33;;;;;;;20.88;62.28;100010.53;5074986;28;20129;-63
2023/06/08 09:15:16;;;;;;;;;;;;;;;20.89;65.87;100017.56;5075222;28;20079;-61
2023/06/08 09:17:43;;;;;;;2.05;1.85;;;;;;;21.06;65.59;100023.81;5074952;28;19912;-61
2023/06/08 09:20:09;;;;;;;2.20;2.00;;;;;;;21.17;66.42;100019.34;5074502;28;20024;-60
2023/06/08 09:22:38;;;;;;;2.57;2.20;;;;;;;21.44;67.02;100024.09;5074880;28;20028;-61
2023/06/08 09:25:04;;;;;;;2.83;2.20;;;;;;;21.82;67.96;100024.06;5074656;28;20644;-60
2023/06/08 09:27:31;;;;;;;4.82;2.50;;;;;;;21.91;66.68;100030.69;5074509;28;20443;-61
2023/06/08 09:29:57;;;;;;;2.72;2.28;;;;;;;22.13;67.85;100019.03;5074341;28;20489;-59
2023/06/08 09:32:31;;;;;;;3.20;2.55;;;;;;;22.25;66.51;100010.75;5074757;28;20401;-59
2023/06/08 09:35:01;;;;;;;2.65;2.25;;;;;;;22.41;66.06;100021.50;5074649;28;20040;-59
2023/06/08 09:37:32;;;;;;;3.67;2.95;;;;;;;22.09;68.27;100017.91;5074545;28;20042;-61
2023/06/08 09:40:05;;;;;;;4.15;3.00;;;;;;;22.12;68.50;100007.38;5074285;28;20072;-60
2023/06/08 09:42:46;;;;;;;3.38;2.90;;;;;;;22.26;68.09;100002.34;5074370;28;20075;-61
2023/06/08 09:45:14;;;;;;;2.90;2.47;;;;;;;22.58;67.23;99996.97;5074221;28;20040;-60
2023/06/08 09:47:40;;;;;;;3.05;2.75;;;;;;;22.94;67.47;99991.84;5074296;28;20068;-60
2023/06/08 09:50:08;;;;;;;3.05;2.70;;;;;;;23.28;64.76;99992.34;5074054;28;20033;-60
2023/06/08 09:52:36;;;;;;;3.58;2.88;;;;;;;23.52;63.88;99995.44;5074163;28;20048;-61
2023/06/08 09:55:02;;;;;;;3.63;3.33;;;;;;;23.94;62.48;99998.09;5074203;28;20040;-62
2023/06/08 09:57:34;;;;;;;3.17;2.88;;;;;;;24.19;61.44;99991.91;5074188;28;20412;-60
2023/06/08 10:03:08;;;;;;;3.67;2.97;;;;;;;24.64;60.93;99991.16;5074186;28;20063;-62
2023/06/08 10:05:36;;;;;;;3.88;3.47;;;;;;;24.92;58.66;99991.72;5072754;28;20028;-62
2023/06/08 10:08:03;;;;;;;4.65;3.22;;;;;;;25.00;58.30;99987.59;5074257;28;20158;-62
2023/06/08 10:10:29;;;;;;;;;;;;;;;25.17;57.95;99988.97;5073992;28;20041;-61
2023/06/08 10:12:56;;;;;;;3.58;3.05;;;;;;;25.34;56.53;99990.56;5074399;28;19935;-61
2023/06/08 10:15:22;;;;;;;4.15;3.75;;;;;;;25.64;55.36;99992.38;5073847;28;20032;-62
2023/06/08 10:17:50;;;;;;;3.30;3.00;;;;;;;25.66;53.92;99990.19;5073798;28;20123;-62
2023/06/08 10:20:16;;;;;;;4.03;3.63;;;;;;;26.22;53.05;99987.19;5073368;28;20038;-61
2023/06/08 10:22:42;;;;;;;3.88;3.47;;;;;;;26.39;52.37;99990.34;5073757;28;20044;-62
2023/06/08 10:25:13;;;;;;;3.33;3.03;;;;;;;26.31;51.83;99995.59;5073563;28;20036;-62
2023/06/08 10:27:45;;;;;;;4.03;3.20;;;;;;;26.50;49.24;99991.94;5073758;28;20044;-61
2023/06/08 10:30:26;;;;;;;3.50;3.20;;;;;;;26.71;48.58;99989.84;5073348;28;20067;-61
2023/06/08 10:33:27;;;;;;;3.60;3.30;;;;;;;27.42;47.90;99974.69;5073648;28;20119;-60
2023/06/08 10:36:03;;;;;;;3.38;2.75;;;;;;;27.56;47.58;99974.78;5073408;28;20439;-61
2023/06/08 10:38:29;;;;;;;3.22;2.92;;;;;;;27.66;46.72;99974.69;5073165;28;20121;-60
2023/06/08 10:40:55;;;;;;;3.47;3.17;;;;;;;27.85;45.63;99966.53;5073427;28;20024;-61
2023/06/08 10:43:27;;;;;;;4.25;3.25;;;;;;;28.26;44.10;99964.00;5073391;28;20382;-62
2023/06/08 10:45:53;;;;;;;3.15;2.85;;;;;;;28.02;44.71;99960.53;5073467;28;20036;-61
2023/06/08 10:48:19;;;;;;;3.13;2.80;;;;;;;28.16;44.21;99961.41;5073009;28;20106;-62
2023/06/08 10:50:46;;;;;;;3.28;2.97;;;;;;;28.28;44.39;99953.56;5073189;28;20481;-62
2023/06/08 10:53:11;;;;;;;6.20;2.88;;;;;;;28.82;41.80;99954.91;5073086;28;20558;-62
2023/06/08 10:55:37;;;;;;;3.10;2.80;;;;;;;28.81;42.72;99946.97;5073092;28;20119;-62
2023/06/08 10:58:18;;;;;;;4.00;2.65;;;;;;;29.17;41.72;99947.16;5073082;28;20123;-61
2023/06/08 11:00:46;;;;;;;2.63;2.30;;;;;;;29.58;38.63;99949.91;5072901;28;20043;-61
2023/06/08 11:03:14;;;;;;;3.33;3.03;;;;;;;29.68;39.58;99944.22;5073065;28;20040;-62
2023/06/08 11:05:44;;;;;;;3.28;2.88;;;;;;;29.61;39.28;99943.81;5072651;28;20040;-62
2023/06/08 11:08:11;;;;;;;2.90;2.70;;;;;;;30.06;38.08;99943.94;5072917;28;20040;-60
2023/06/08 11:10:39;;;;;;;3.90;2.40;;;;;;;29.71;37.26;99943.59;5072474;28;20063;-58
2023/06/08 11:13:17;;;;;;;2.70;2.50;;;;;;;30.16;37.21;99940.97;5069417;28;20037;-63
2023/06/08 11:15:46;;;;;;;3.05;2.75;;;;;;;29.92;36.68;99940.38;5061146;28;20067;-61
2023/06/08 11:18:12;;;;;;;3.08;2.78;;;;;;;30.08;37.83;99936.19;5072515;28;20090;-61
2023/06/08 11:20:39;;;;;;;2.63;2.40;;;;;;;30.47;36.74;99929.25;5072403;28;20040;-61
2023/06/08 11:23:12;;;;;;;2.90;2.60;;;;;;;30.70;36.87;99925.34;5072586;28;20071;-62
2023/06/08 11:25:38;;;;;;;2.30;2.10;;;;;;;30.96;35.38;99925.47;5072484;28;20044;-60
2023/06/08 11:28:07;;;;;;;2.38;2.17;;;;;;;31.04;34.75;99913.72;5072696;28;20067;-61
2023/06/08 11:30:34;;;;;;;2.78;2.45;;;;;;;31.11;33.21;99906.97;5064396;28;20039;-62
2023/06/08 11:33:03;;;;;;;2.53;2.33;;;;;;;30.75;32.60;99913.41;5060258;28;20060;-61
2023/06/08 11:35:28;;;;;;;2.25;2.05;;;;;;;30.87;33.38;99908.16;5043635;28;20517;-61
2023/06/08 11:37:56;;;;;;;2.70;2.10;;;;;;;31.28;32.44;99904.28;5046667;28;20063;-60
2023/06/08 11:40:22;;;;;;;2.58;2.38;;;;;;;31.21;32.91;99901.97;5216851;22;20057;-63
2023/06/08 11:42:49;;;;;;;2.75;2.40;;;;;;;31.55;33.20;99901.25;5213736;22;20046;-61
2023/06/08 11:45:15;;;;;;;;;;;;;;;31.72;33.43;99886.72;5007353;28;20095;-61
2023/06/08 11:47:42;;;;;;;6.77;3.30;;;;;;;30.97;32.95;99880.38;5018774;28;19917;-61
2023/06/08 11:50:08;;;;;;;2.38;2.15;;;;;;;31.06;33.61;99883.97;5019928;28;20025;-61
2023/06/08 11:52:35;;;;;;;2.08;1.92;;;;;;;31.93;33.32;99880.59;5022786;28;20048;-59
2023/06/08 11:55:06;;;;;;;2.40;2.20;;;;;;;31.46;32.64;99864.66;5021085;28;20517;-61
2023/06/08 11:57:43;;;;;;;2.83;2.38;;;;;;;31.81;32.44;99870.22;5021725;28;20029;-61
2023/06/08 12:00:19;;;;;;;2.75;2.35;;;;;;;32.30;31.23;99870.84;5021313;28;20038;-60
2023/06/08 12:02:50;;;;;;;4.35;2.65;;;;;;;32.40;31.76;99867.75;5017480;28;20025;-61
2023/06/08 12:05:18;;;;;;;2.85;2.10;;;;;;;32.54;31.89;99860.13;5020072;28;20051;-61
2023/06/08 12:07:54;;;;;;;2.00;1.70;;;;;;;32.89;26.95;99860.00;5019205;28;20026;-59
2023/06/08 12:10:20;;;;;;;1.80;1.60;;;;;;;33.38;26.00;99852.09;5022195;28;20029;-60
2023/06/08 12:12:47;;;;;;;2.10;1.90;;;;;;;33.36;26.64;99841.41;5005246;28;20057;-61
2023/06/08 12:15:17;;;;;;;2.00;1.80;;;;;;;33.64;26.93;99843.66;5021371;28;20830;-62
2023/06/08 12:17:43;;;;;;;2.40;2.20;;;;;;;33.34;27.25;99845.66;5023733;28;20030;-61
2023/06/08 12:20:09;;;;;;;2.22;2.03;;;;;;;33.11;28.93;99843.16;5020082;28;20123;-61
2023/06/08 12:22:35;;;;;;;2.67;2.40;;;;;;;33.66;28.22;99844.94;5021422;28;20075;-61
2023/06/08 12:25:00;;;;;;;2.10;1.90;;;;;;;33.62;27.82;99838.47;5003141;28;20530;-61
2023/06/08 12:27:30;;;;;;;2.17;1.90;;;;;;;32.51;29.27;99824.94;5022124;28;20056;-61
2023/06/08 12:29:56;;;;;;;2.42;2.20;;;;;;;32.59;30.43;99824.09;4989266;28;20033;-60
2023/06/08 12:32:23;;;;;;;2.33;1.90;;;;;;;33.39;28.96;99823.41;5020488;28;20419;-61
2023/06/08 12:34:48;;;;;;;;;;;;;;;33.88;27.72;99829.16;5012718;28;20080;-61
2023/06/08 12:37:14;;;;;;;2.63;2.08;;;;;;;33.52;27.80;99832.53;5021193;28;20368;-60
2023/06/08 12:39:39;;;;;;;2.47;2.27;;;;;;;33.65;28.40;99824.00;5019904;28;20038;-62
2023/06/08 12:42:06;;;;;;;3.20;2.80;;;;;;;33.62;27.53;99821.91;5011978;28;20061;-61
2023/06/08 12:44:32;;;;;;;2.65;2.17;;;;;;;33.29;27.50;99824.56;5023584;28;20384;-61
2023/06/08 12:46:58;;;;;;;3.57;2.50;;;;;;;33.35;27.51;99814.13;5027129;28;20116;-60
2023/06/08 12:49:24;;;;;;;3.05;2.50;;;;;;;33.78;27.11;99818.53;5035665;28;20039;-61
2023/06/08 12:51:49;;;;;;;2.60;2.03;;;;;;;34.08;25.13;99813.72;5035451;28;20046;-61
2023/06/08 12:54:15;;;;;;;2.67;2.30;;;;;;;34.13;25.88;99810.75;5035667;28;20048;-61
2023/06/08 12:56:40;;;;;;;2.40;2.00;;;;;;;34.27;25.75;99811.25;5035595;28;20042;-61
2023/06/08 12:59:06;;;;;;;2.40;2.20;;;;;;;34.25;24.75;99810.78;5033212;28;20030;-60
2023/06/08 13:01:31;;;;;;;6.47;4.27;;;;;;;35.01;23.19;99801.09;5015595;28;20034;-62
2023/06/08 13:03:56;;;;;;;3.00;2.30;;;;;;;34.67;21.28;99805.91;5015757;28;20049;-61
2023/06/08 13:06:22;;;;;;;3.27;2.30;;;;;;;34.71;22.71;99800.50;5022457;28;20050;-62
2023/06/08 13:08:47;;;;;;;7.80;5.50;;;;;;;34.70;23.33;99788.63;5026738;28;20042;-62
2023/06/08 13:11:12;;;;;;;2.37;2.10;;;;;;;34.85;21.65;99789.09;5030879;28;20137;-62
2023/06/08 13:13:38;;;;;;;2.50;2.00;;;;;;;34.68;22.69;99790.13;5014651;28;20104;-62
2023/06/08 13:16:04;;;;;;;1.97;1.77;;;;;;;34.19;23.07;99796.38;5015440;28;20038;-61
2023/06/08 13:18:30;;;;;;;;;;;;;;;32.90;23.24;99789.91;5015458;28;20042;-62
2023/06/08 13:20:56;;;;;;;3.00;1.83;;;;;;;32.64;23.79;99799.09;5015255;28;19963;-61
2023/06/08 13:23:24;;;;;;;2.30;2.00;;;;;;;33.04;24.49;99798.75;5015064;28;20053;-61
2023/06/08 13:25:50;;;;;;;2.08;1.88;;;;;;;32.75;23.69;99801.50;5015016;28;20065;-62
2023/06/08 13:28:16;;;;;;;2.70;2.05;;;;;;;32.02;23.91;99788.59;5015045;28;20030;-61
2023/06/08 13:30:42;;;;;;;2.17;1.98;;;;;;;31.85;25.51;99800.44;5015046;28;20052;-59
2023/06/08 13:33:07;;;;;;;2.67;2.13;;;;;;;31.84;24.77;99811.78;5015045;28;20081;-62
2023/06/08 13:35:32;;;;;;;2.20;1.83;;;;;;;32.04;25.17;99813.84;5015005;28;20057;-62
2023/06/08 13:37:58;;;;;;;2.33;2.00;;;;;;;31.42;26.07;99807.84;5015056;28;20221;-62
2023/06/08 13:40:24;;;;;;;2.40;2.10;;;;;;;31.11;27.39;99813.47;5014599;28;20487;-60
2023/06/08 13:42:50;;;;;;;2.57;2.13;;;;;;;30.17;28.41;99842.91;5014700;28;20049;-62
2023/06/08 13:45:16;;;;;;;2.47;2.03;;;;;;;27.37;32.10;99829.00;5014942;28;20059;-60
2023/06/08 13:47:41;;;;;;;2.00;1.80;;;;;;;27.17;33.75;99841.84;5014984;28;20049;-60
2023/06/08 13:50:07;;;;;;;2.38;1.73;;;;;;;26.37;34.16;99841.56;5014487;28;20038;-61
2023/06/08 13:52:33;;;;;;;3.40;2.25;;;;;;;26.07;34.79;99838.00;5014545;28;20038;-60
2023/06/08 13:54:59;;;;;;;1.95;1.70;;;;;;;25.41;34.92;99832.97;5014118;28;20045;-62
2023/06/08 13:57:25;;;;;;;4.75;2.10;;;;;;;25.13;34.96;99829.84;5014712;28;20042;-62
2023/06/08 13:59:51;;;;;;;3.92;1.90;;;;;;;24.92;35.55;99830.19;5014216;28;20503;-62
2023/06/08 14:02:16;;;;;;;2.50;2.13;;;;;;;25.01;35.20;99826.59;5014418;28;20026;-62
2023/06/08 14:04:42;;;;;;;4.22;1.90;;;;;;;24.69;35.75;99826.97;5014382;28;20038;-59
2023/06/08 14:07:07;;;;;;;2.65;1.90;;;;;;;24.72;35.96;99826.44;5011661;28;20077;-62
2023/06/08 14:09:33;;;;;;;2.63;1.92;;;;;;;24.72;35.92;99828.34;5012624;28;20041;-61
2023/06/08 14:11:58;;;;;;;3.22;1.98;;;;;;;24.76;36.12;99829.41;5024615;28;20553;-60
2023/06/08 14:14:23;;;;;;;3.75;2.05;;;;;;;24.61;36.12;99825.63;5018596;28;20026;-59
2023/06/08 14:16:49;;;;;;;2.60;1.80;;;;;;;24.88;36.34;99836.16;5025281;28;20483;-61
2023/06/08 14:19:14;;;;;;;2.92;1.77;;;;;;;24.86;35.96;99853.88;5016137;28;20068;-62
2023/06/08 14:21:41;;;;;;;2.58;2.25;;;;;;;24.93;36.78;99862.59;5032753;28;20037;-60
2023/06/08 14:24:06;;;;;;;2.42;1.80;;;;;;;25.05;36.61;99871.28;5033895;28;20132;-60
2023/06/08 14:26:32;;;;;;;2.95;2.08;;;;;;;24.91;36.50;99875.69;5033970;28;20490;-61
2023/06/08 14:28:57;;;;;;;3.08;1.80;;;;;;;25.00;37.12;99878.63;5033671;28;20116;-62
2023/06/08 14:31:24;;;;;;;2.60;1.80;;;;;;;25.04;37.23;99890.59;5033784;28;20060;-61
2023/06/08 14:33:50;;;;;;;2.15;1.85;;;;;;;24.85;37.82;99904.00;5022632;28;20034;-61
2023/06/08 14:36:16;;;;;;;2.67;2.08;;;;;;;24.77;38.69;99920.88;5013783;28;20046;-61
2023/06/08 14:38:41;;;;;;;2.72;1.95;;;;;;;24.33;40.77;99935.06;5013617;28;20116;-60
2023/06/08 14:41:07;;;;;;;2.75;1.92;;;;;;;23.88;44.49;99938.53;5013640;28;20080;-59
2023/06/08 14:43:32;;;;;;;4.68;2.20;;;;;;;24.03;47.20;99971.19;5013546;28;20037;-58
2023/06/08 14:45:58;;;;;;;3.25;1.80;;;;;;;23.80;48.52;99965.16;5012206;28;20479;-60
2023/06/08 14:48:23;;;;;;;3.15;1.83;;;;;;;23.61;49.79;99955.84;5011927;28;20099;-60
2023/06/08 14:50:48;;;;;;;3.88;2.35;;;;;;;23.24;52.30;99945.03;5013297;28;20046;-60
2023/06/08 14:53:14;;;;;;;4.60;2.40;;;;;;;22.96;56.21;99949.78;5013471;28;20041;-64
2023/06/08 14:55:39;;;;;;;3.65;2.42;;;;;;;22.46;61.36;99942.84;5013280;28;20395;-63
2023/06/08 14:58:05;;;;;;;2.97;2.20;;;;;;;22.25;64.57;99942.94;5013350;28;20074;-64
2023/06/08 15:00:30;;;;;;;4.15;2.72;;;;;;;21.96;67.87;99951.28;5013373;28;20099;-61
2023/06/08 15:02:55;;;;;;;3.92;2.75;;;;;;;21.59;69.34;99940.31;5013244;28;20045;-52
2023/06/08 15:05:21;;;;;;;3.00;2.40;;;;;;;21.49;70.54;99929.34;5012316;28;20465;-63
2023/06/08 15:07:46;;;;;;;2.70;2.35;;;;;;;21.17;71.78;99921.84;5013164;28;20034;-63
2023/06/08 15:10:12;;;;;;;3.20;2.40;;;;;;;20.67;74.19;99916.53;5012785;28;20487;-61
2023/06/08 15:12:37;;;;;;;3.33;2.42;;;;;;;20.61;72.82;99912.94;5012887;28;20049;-63
2023/06/08 15:15:03;;;;;;;4.28;2.55;;;;;;;20.34;75.26;99899.22;5012961;28;20046;-63
2023/06/08 15:17:29;;;;;;;3.10;2.30;;;;;;;20.19;75.54;99899.78;5012940;28;20069;-62
2023/06/08 15:19:54;;;;;;;3.13;2.38;;;;;;;19.97;77.34;99893.47;5012663;28;20038;-62
2023/06/08 15:22:19;;;;;;;3.40;2.40;;;;;;;19.81;77.13;99872.59;5012804;28;20073;-63
2023/06/08 15:24:45;;;;;;;3.20;2.58;;;;;;;19.70;77.49;99864.34;5012596;28;20136;-63
2023/06/08 15:27:10;;;;;;;2.88;2.42;;;;;;;19.46;77.49;99862.75;5012933;28;20060;-62
2023/06/08 15:29:35;;;;;;;3.15;2.72;;;;;;;19.41;79.33;99851.84;5012591;28;20046;-61
2023/06/08 15:32:01;;;;;;;2.97;2.55;;;;;;;19.50;79.10;99845.00;5012730;28;20116;-63
2023/06/08 15:34:26;;;;;;;3.13;2.47;;;;;;;19.38;79.76;99831.56;5012628;28;20053;-63
2023/06/08 15:36:52;;;;;;;2.83;2.45;;;;;;;19.36;80.49;99819.31;5012820;28;20084;-62
2023/06/08 15:39:17;;;;;;;4.55;4.10;;;;;;;19.45;77.56;99812.50;5012290;28;20041;-62
2023/06/08 15:41:43;;;;;;;3.30;2.85;;;;;;;19.49;79.65;99803.66;5012392;28;20029;-62
2023/06/08 15:44:08;;;;;;;2.88;2.28;;;;;;;19.51;78.39;99800.72;5012720;28;20399;-62
2023/06/08 15:46:34;;;;;;;3.75;2.50;;;;;;;19.63;80.20;99796.13;5012527;28;20046;-64
2023/06/08 15:49:00;;;;;;;4.03;2.55;;;;;;;19.77;79.19;99797.44;5012530;28;20034;-63
2023/06/08 15:51:30;;;;;;;3.05;2.40;;;;;;;19.86;78.35;99784.34;5012362;28;20076;-63
2023/06/08 15:53:56;;;;;;;2.53;2.08;;;;;;;20.04;75.23;99788.69;5012304;28;20038;-63